sensor_id;sensor_type;location;lat;lon;timestamp;P1;durP1;ratioP1;P2;durP2;ratioP2
62006;SDS011;47963;53.008;6.754;2022-08-07T00:01:44;9.07;;;5.28;;
62006;SDS011;47963;53.008;6.754;2022-08-07T00:04:10;9.15;;;5.20;;
62006;SDS011;47963;53.008;6.754;2022-08-07T00:06:36;8.70;;;5.40;;
62006;SDS011;47963;53.008;6.754;2022-08-07T00:09:02;8.45;;;5.18;;
62006;SDS011;47963;53.008;6.754;2022-08-07T00:11:28;8.00;;;5.20;;
62006;SDS011;47963;53.008;6.754;2022-08-07T00:13:54;7.80;;;4.97;;
62006;SDS011;47963;53.008;6.754;2022-08-07T00:16:19;10.70;;;5.43;;
62006;SDS011;47963;53.008;6.754;2022-08-07T00:18:45;8.15;;;4.68;;
62006;SDS011;47963;53.008;6.754;2022-08-07T00:21:10;8.10;;;4.63;;
62006;SDS011;47963;53.008;6.754;2022-08-07T00:23:37;8.70;;;4.90;;
62006;SDS011;47963;53.008;6.754;2022-08-07T00:26:05;7.97;;;5.07;;
62006;SDS011;47963;53.008;6.754;2022-08-07T00:28:32;7.55;;;4.63;;
62006;SDS011;47963;53.008;6.754;2022-08-07T00:30:58;8.43;;;4.93;;
62006;SDS011;47963;53.008;6.754;2022-08-07T00:33:25;8.43;;;4.78;;
62006;SDS011;47963;53.008;6.754;2022-08-07T00:35:55;7.45;;;4.70;;
62006;SDS011;47963;53.008;6.754;2022-08-07T00:38:21;8.93;;;5.20;;
62006;SDS011;47963;53.008;6.754;2022-08-07T00:40:47;9.07;;;5.45;;
62006;SDS011;47963;53.008;6.754;2022-08-07T00:43:13;8.70;;;5.60;;
62006;SDS011;47963;53.008;6.754;2022-08-07T00:45:39;9.57;;;5.63;;
62006;SDS011;47963;53.008;6.754;2022-08-07T00:48:06;8.77;;;5.40;;
62006;SDS011;47963;53.008;6.754;2022-08-07T00:50:32;9.90;;;5.60;;
62006;SDS011;47963;53.008;6.754;2022-08-07T00:53:01;8.60;;;5.60;;
62006;SDS011;47963;53.008;6.754;2022-08-07T00:55:27;8.57;;;5.28;;
62006;SDS011;47963;53.008;6.754;2022-08-07T00:57:53;9.93;;;5.70;;
62006;SDS011;47963;53.008;6.754;2022-08-07T01:00:19;8.52;;;5.38;;
62006;SDS011;47963;53.008;6.754;2022-08-07T01:02:46;9.80;;;6.25;;
62006;SDS011;47963;53.008;6.754;2022-08-07T01:05:11;10.93;;;6.47;;
62006;SDS011;47963;53.008;6.754;2022-08-07T01:07:38;8.27;;;5.90;;
62006;SDS011;47963;53.008;6.754;2022-08-07T01:10:05;9.80;;;5.95;;
62006;SDS011;47963;53.008;6.754;2022-08-07T01:12:32;9.50;;;5.90;;
62006;SDS011;47963;53.008;6.754;2022-08-07T01:14:58;9.23;;;6.30;;
62006;SDS011;47963;53.008;6.754;2022-08-07T01:17:26;8.57;;;6.03;;
62006;SDS011;47963;53.008;6.754;2022-08-07T01:19:53;10.43;;;6.80;;
62006;SDS011;47963;53.008;6.754;2022-08-07T01:22:23;10.48;;;6.43;;
62006;SDS011;47963;53.008;6.754;2022-08-07T01:24:49;9.80;;;6.25;;
62006;SDS011;47963;53.008;6.754;2022-08-07T01:27:16;9.55;;;6.28;;
62006;SDS011;47963;53.008;6.754;2022-08-07T01:29:41;11.13;;;6.50;;
62006;SDS011;47963;53.008;6.754;2022-08-07T01:32:07;8.98;;;6.15;;
62006;SDS011;47963;53.008;6.754;2022-08-07T01:34:33;8.75;;;5.93;;
62006;SDS011;47963;53.008;6.754;2022-08-07T01:36:59;10.50;;;5.90;;
62006;SDS011;47963;53.008;6.754;2022-08-07T01:39:25;9.43;;;6.20;;
62006;SDS011;47963;53.008;6.754;2022-08-07T01:41:52;9.43;;;6.47;;
62006;SDS011;47963;53.008;6.754;2022-08-07T01:44:18;9.57;;;6.43;;
62006;SDS011;47963;53.008;6.754;2022-08-07T01:46:44;9.75;;;6.82;;
62006;SDS011;47963;53.008;6.754;2022-08-07T01:49:10;9.68;;;6.25;;
62006;SDS011;47963;53.008;6.754;2022-08-07T01:51:36;10.35;;;6.35;;
62006;SDS011;47963;53.008;6.754;2022-08-07T01:54:05;9.68;;;6.68;;
62006;SDS011;47963;53.008;6.754;2022-08-07T01:56:40;9.88;;;5.90;;
62006;SDS011;47963;53.008;6.754;2022-08-07T01:59:23;9.55;;;6.35;;
62006;SDS011;47963;53.008;6.754;2022-08-07T02:01:53;10.00;;;6.55;;
62006;SDS011;47963;53.008;6.754;2022-08-07T02:04:29;9.70;;;6.50;;
62006;SDS011;47963;53.008;6.754;2022-08-07T02:07:02;9.88;;;6.38;;
62006;SDS011;47963;53.008;6.754;2022-08-07T02:09:30;9.55;;;6.35;;
62006;SDS011;47963;53.008;6.754;2022-08-07T02:11:57;9.70;;;6.10;;
62006;SDS011;47963;53.008;6.754;2022-08-07T02:14:40;11.07;;;6.70;;
62006;SDS011;47963;53.008;6.754;2022-08-07T02:17:09;10.10;;;6.60;;
62006;SDS011;47963;53.008;6.754;2022-08-07T02:19:38;10.13;;;6.30;;
62006;SDS011;47963;53.008;6.754;2022-08-07T02:22:07;9.52;;;5.88;;
62006;SDS011;47963;53.008;6.754;2022-08-07T02:24:36;8.68;;;5.95;;
62006;SDS011;47963;53.008;6.754;2022-08-07T02:27:01;9.57;;;5.93;;
62006;SDS011;47963;53.008;6.754;2022-08-07T02:29:28;8.73;;;5.78;;
62006;SDS011;47963;53.008;6.754;2022-08-07T02:31:55;9.27;;;5.82;;
62006;SDS011;47963;53.008;6.754;2022-08-07T02:34:21;9.52;;;5.93;;
62006;SDS011;47963;53.008;6.754;2022-08-07T02:36:47;8.85;;;6.13;;
62006;SDS011;47963;53.008;6.754;2022-08-07T02:39:14;9.50;;;6.13;;
62006;SDS011;47963;53.008;6.754;2022-08-07T02:41:41;9.85;;;6.18;;
62006;SDS011;47963;53.008;6.754;2022-08-07T02:44:08;9.32;;;6.10;;
62006;SDS011;47963;53.008;6.754;2022-08-07T02:46:35;9.00;;;6.07;;
62006;SDS011;47963;53.008;6.754;2022-08-07T02:49:02;10.45;;;6.35;;
62006;SDS011;47963;53.008;6.754;2022-08-07T02:51:29;9.85;;;6.22;;
62006;SDS011;47963;53.008;6.754;2022-08-07T02:53:59;10.00;;;6.10;;
62006;SDS011;47963;53.008;6.754;2022-08-07T02:56:28;9.80;;;6.15;;
62006;SDS011;47963;53.008;6.754;2022-08-07T02:58:56;10.50;;;6.00;;
62006;SDS011;47963;53.008;6.754;2022-08-07T03:01:26;10.45;;;6.22;;
62006;SDS011;47963;53.008;6.754;2022-08-07T03:03:52;9.77;;;5.80;;
62006;SDS011;47963;53.008;6.754;2022-08-07T03:06:20;11.25;;;6.07;;
62006;SDS011;47963;53.008;6.754;2022-08-07T03:08:47;9.50;;;5.78;;
62006;SDS011;47963;53.008;6.754;2022-08-07T03:11:13;10.20;;;6.20;;
62006;SDS011;47963;53.008;6.754;2022-08-07T03:13:40;9.40;;;6.18;;
62006;SDS011;47963;53.008;6.754;2022-08-07T03:16:07;9.30;;;6.55;;
62006;SDS011;47963;53.008;6.754;2022-08-07T03:18:33;9.38;;;6.40;;
62006;SDS011;47963;53.008;6.754;2022-08-07T03:20:59;9.85;;;5.85;;
62006;SDS011;47963;53.008;6.754;2022-08-07T03:23:25;8.90;;;5.80;;
62006;SDS011;47963;53.008;6.754;2022-08-07T03:25:52;10.48;;;6.32;;
62006;SDS011;47963;53.008;6.754;2022-08-07T03:28:19;10.02;;;5.93;;
62006;SDS011;47963;53.008;6.754;2022-08-07T03:30:45;9.25;;;5.88;;
62006;SDS011;47963;53.008;6.754;2022-08-07T03:33:11;9.60;;;5.93;;
62006;SDS011;47963;53.008;6.754;2022-08-07T03:35:38;9.88;;;6.20;;
62006;SDS011;47963;53.008;6.754;2022-08-07T03:38:06;9.30;;;5.60;;
62006;SDS011;47963;53.008;6.754;2022-08-07T03:40:33;9.10;;;6.30;;
62006;SDS011;47963;53.008;6.754;2022-08-07T03:42:59;10.55;;;6.60;;
62006;SDS011;47963;53.008;6.754;2022-08-07T03:45:26;10.13;;;6.38;;
62006;SDS011;47963;53.008;6.754;2022-08-07T03:47:53;9.43;;;6.28;;
62006;SDS011;47963;53.008;6.754;2022-08-07T03:50:20;9.10;;;6.13;;
62006;SDS011;47963;53.008;6.754;2022-08-07T03:52:49;9.05;;;6.07;;
62006;SDS011;47963;53.008;6.754;2022-08-07T03:55:17;10.85;;;5.90;;
62006;SDS011;47963;53.008;6.754;2022-08-07T03:57:43;9.50;;;6.35;;
62006;SDS011;47963;53.008;6.754;2022-08-07T04:00:10;9.57;;;6.18;;
62006;SDS011;47963;53.008;6.754;2022-08-07T04:02:37;9.77;;;6.18;;
62006;SDS011;47963;53.008;6.754;2022-08-07T04:05:03;9.27;;;5.95;;
62006;SDS011;47963;53.008;6.754;2022-08-07T04:07:30;9.02;;;6.05;;
62006;SDS011;47963;53.008;6.754;2022-08-07T04:09:56;10.18;;;6.25;;
62006;SDS011;47963;53.008;6.754;2022-08-07T04:12:22;9.70;;;6.25;;
62006;SDS011;47963;53.008;6.754;2022-08-07T04:14:49;9.35;;;6.28;;
62006;SDS011;47963;53.008;6.754;2022-08-07T04:17:16;9.57;;;6.63;;
62006;SDS011;47963;53.008;6.754;2022-08-07T04:19:42;11.82;;;7.13;;
62006;SDS011;47963;53.008;6.754;2022-08-07T04:22:08;11.95;;;7.00;;
62006;SDS011;47963;53.008;6.754;2022-08-07T04:24:34;9.95;;;7.22;;
62006;SDS011;47963;53.008;6.754;2022-08-07T04:27:02;9.52;;;6.53;;
62006;SDS011;47963;53.008;6.754;2022-08-07T04:29:28;10.45;;;6.70;;
62006;SDS011;47963;53.008;6.754;2022-08-07T04:31:55;11.38;;;8.10;;
62006;SDS011;47963;53.008;6.754;2022-08-07T04:34:21;10.98;;;7.70;;
62006;SDS011;47963;53.008;6.754;2022-08-07T04:36:47;10.38;;;7.40;;
62006;SDS011;47963;53.008;6.754;2022-08-07T04:39:13;10.85;;;7.20;;
62006;SDS011;47963;53.008;6.754;2022-08-07T04:41:39;9.75;;;6.82;;
62006;SDS011;47963;53.008;6.754;2022-08-07T04:44:05;9.38;;;6.53;;
62006;SDS011;47963;53.008;6.754;2022-08-07T04:49:04;9.85;;;6.28;;
62006;SDS011;47963;53.008;6.754;2022-08-07T04:51:48;9.52;;;6.45;;
62006;SDS011;47963;53.008;6.754;2022-08-07T04:59:58;9.40;;;5.90;;
62006;SDS011;47963;53.008;6.754;2022-08-07T05:05:16;9.02;;;6.30;;
62006;SDS011;47963;53.008;6.754;2022-08-07T05:08:00;9.57;;;6.45;;
62006;SDS011;47963;53.008;6.754;2022-08-07T05:10:43;10.20;;;7.00;;
62006;SDS011;47963;53.008;6.754;2022-08-07T05:13:15;8.98;;;6.57;;
62006;SDS011;47963;53.008;6.754;2022-08-07T05:15:45;10.10;;;6.20;;
62006;SDS011;47963;53.008;6.754;2022-08-07T05:18:30;10.43;;;6.25;;
62006;SDS011;47963;53.008;6.754;2022-08-07T05:21:02;10.10;;;6.75;;
62006;SDS011;47963;53.008;6.754;2022-08-07T05:23:37;9.65;;;7.38;;
62006;SDS011;47963;53.008;6.754;2022-08-07T05:26:07;10.55;;;7.10;;
62006;SDS011;47963;53.008;6.754;2022-08-07T05:28:38;9.93;;;6.88;;
62006;SDS011;47963;53.008;6.754;2022-08-07T05:31:04;10.00;;;7.40;;
62006;SDS011;47963;53.008;6.754;2022-08-07T05:33:32;10.48;;;7.05;;
62006;SDS011;47963;53.008;6.754;2022-08-07T05:36:00;9.93;;;7.07;;
62006;SDS011;47963;53.008;6.754;2022-08-07T05:38:27;11.18;;;7.25;;
62006;SDS011;47963;53.008;6.754;2022-08-07T05:40:53;12.05;;;7.35;;
62006;SDS011;47963;53.008;6.754;2022-08-07T05:43:20;10.10;;;7.65;;
62006;SDS011;47963;53.008;6.754;2022-08-07T05:45:47;10.32;;;7.60;;
62006;SDS011;47963;53.008;6.754;2022-08-07T05:48:13;11.40;;;7.90;;
62006;SDS011;47963;53.008;6.754;2022-08-07T05:50:39;10.93;;;7.85;;
62006;SDS011;47963;53.008;6.754;2022-08-07T05:53:05;11.15;;;8.45;;
62006;SDS011;47963;53.008;6.754;2022-08-07T05:55:34;11.10;;;8.60;;
62006;SDS011;47963;53.008;6.754;2022-08-07T05:58:00;13.70;;;9.43;;
62006;SDS011;47963;53.008;6.754;2022-08-07T06:00:27;12.63;;;9.43;;
62006;SDS011;47963;53.008;6.754;2022-08-07T06:02:55;12.20;;;9.50;;
62006;SDS011;47963;53.008;6.754;2022-08-07T06:05:23;14.98;;;11.30;;
62006;SDS011;47963;53.008;6.754;2022-08-07T06:07:56;14.02;;;11.30;;
62006;SDS011;47963;53.008;6.754;2022-08-07T06:10:24;14.93;;;11.85;;
62006;SDS011;47963;53.008;6.754;2022-08-07T06:12:51;14.77;;;11.23;;
62006;SDS011;47963;53.008;6.754;2022-08-07T06:15:17;14.25;;;11.35;;
62006;SDS011;47963;53.008;6.754;2022-08-07T06:17:45;14.25;;;11.35;;
62006;SDS011;47963;53.008;6.754;2022-08-07T06:20:11;14.35;;;12.00;;
62006;SDS011;47963;53.008;6.754;2022-08-07T06:22:38;15.02;;;11.27;;
62006;SDS011;47963;53.008;6.754;2022-08-07T06:25:06;14.25;;;11.38;;
62006;SDS011;47963;53.008;6.754;2022-08-07T06:27:32;14.60;;;11.52;;
62006;SDS011;47963;53.008;6.754;2022-08-07T06:29:59;13.98;;;11.02;;
62006;SDS011;47963;53.008;6.754;2022-08-07T06:32:24;12.30;;;10.38;;
62006;SDS011;47963;53.008;6.754;2022-08-07T06:34:50;13.88;;;10.30;;
62006;SDS011;47963;53.008;6.754;2022-08-07T06:37:16;14.82;;;10.60;;
62006;SDS011;47963;53.008;6.754;2022-08-07T06:39:42;14.20;;;10.57;;
62006;SDS011;47963;53.008;6.754;2022-08-07T06:42:10;13.70;;;10.82;;
62006;SDS011;47963;53.008;6.754;2022-08-07T06:44:42;13.40;;;10.18;;
62006;SDS011;47963;53.008;6.754;2022-08-07T06:47:10;13.05;;;9.52;;
62006;SDS011;47963;53.008;6.754;2022-08-07T06:49:35;12.38;;;8.55;;
62006;SDS011;47963;53.008;6.754;2022-08-07T06:52:01;12.48;;;8.75;;
62006;SDS011;47963;53.008;6.754;2022-08-07T06:54:28;10.90;;;7.95;;
62006;SDS011;47963;53.008;6.754;2022-08-07T06:56:55;11.32;;;7.65;;
62006;SDS011;47963;53.008;6.754;2022-08-07T06:59:25;10.77;;;7.45;;
62006;SDS011;47963;53.008;6.754;2022-08-07T07:01:53;9.63;;;7.10;;
62006;SDS011;47963;53.008;6.754;2022-08-07T07:04:22;11.45;;;7.38;;
62006;SDS011;47963;53.008;6.754;2022-08-07T07:06:48;12.10;;;7.38;;
62006;SDS011;47963;53.008;6.754;2022-08-07T07:09:21;11.10;;;7.10;;
62006;SDS011;47963;53.008;6.754;2022-08-07T07:14:38;9.55;;;5.18;;
62006;SDS011;47963;53.008;6.754;2022-08-07T07:17:13;9.18;;;5.60;;
62006;SDS011;47963;53.008;6.754;2022-08-07T07:19:49;9.05;;;5.50;;
62006;SDS011;47963;53.008;6.754;2022-08-07T07:22:19;9.30;;;5.10;;
62006;SDS011;47963;53.008;6.754;2022-08-07T07:24:46;9.57;;;5.47;;
62006;SDS011;47963;53.008;6.754;2022-08-07T07:27:13;8.82;;;4.88;;
62006;SDS011;47963;53.008;6.754;2022-08-07T07:29:44;10.00;;;4.10;;
62006;SDS011;47963;53.008;6.754;2022-08-07T07:32:13;7.88;;;4.82;;
62006;SDS011;47963;53.008;6.754;2022-08-07T07:34:43;9.38;;;5.32;;
62006;SDS011;47963;53.008;6.754;2022-08-07T07:37:11;8.88;;;5.70;;
62006;SDS011;47963;53.008;6.754;2022-08-07T07:39:38;9.55;;;5.60;;
62006;SDS011;47963;53.008;6.754;2022-08-07T07:42:06;8.60;;;5.00;;
62006;SDS011;47963;53.008;6.754;2022-08-07T07:44:33;10.18;;;5.57;;
62006;SDS011;47963;53.008;6.754;2022-08-07T07:47:02;9.88;;;6.47;;
62006;SDS011;47963;53.008;6.754;2022-08-07T07:49:29;9.05;;;6.30;;
62006;SDS011;47963;53.008;6.754;2022-08-07T07:51:57;10.95;;;5.43;;
62006;SDS011;47963;53.008;6.754;2022-08-07T07:54:25;9.25;;;5.50;;
62006;SDS011;47963;53.008;6.754;2022-08-07T07:56:52;8.10;;;5.07;;
62006;SDS011;47963;53.008;6.754;2022-08-07T07:59:19;8.25;;;5.43;;
62006;SDS011;47963;53.008;6.754;2022-08-07T08:01:45;8.32;;;4.80;;
62006;SDS011;47963;53.008;6.754;2022-08-07T08:04:14;8.48;;;5.50;;
62006;SDS011;47963;53.008;6.754;2022-08-07T08:06:42;7.57;;;3.97;;
62006;SDS011;47963;53.008;6.754;2022-08-07T08:09:09;8.07;;;3.80;;
62006;SDS011;47963;53.008;6.754;2022-08-07T08:11:36;7.53;;;3.97;;
62006;SDS011;47963;53.008;6.754;2022-08-07T08:14:05;7.30;;;4.05;;
62006;SDS011;47963;53.008;6.754;2022-08-07T08:16:35;7.68;;;3.80;;
62006;SDS011;47963;53.008;6.754;2022-08-07T08:19:04;7.60;;;3.85;;
62006;SDS011;47963;53.008;6.754;2022-08-07T08:21:32;7.22;;;3.85;;
62006;SDS011;47963;53.008;6.754;2022-08-07T08:24:20;7.03;;;3.97;;
62006;SDS011;47963;53.008;6.754;2022-08-07T08:27:05;8.43;;;4.13;;
62006;SDS011;47963;53.008;6.754;2022-08-07T08:30:18;7.68;;;3.95;;
62006;SDS011;47963;53.008;6.754;2022-08-07T08:33:05;7.55;;;3.70;;
62006;SDS011;47963;53.008;6.754;2022-08-07T08:35:26;6.80;;;3.60;;
62006;SDS011;47963;53.008;6.754;2022-08-07T08:37:57;7.95;;;3.97;;
62006;SDS011;47963;53.008;6.754;2022-08-07T08:40:30;8.77;;;4.32;;
62006;SDS011;47963;53.008;6.754;2022-08-07T08:45:43;7.65;;;3.92;;
62006;SDS011;47963;53.008;6.754;2022-08-07T08:51:15;8.67;;;3.80;;
62006;SDS011;47963;53.008;6.754;2022-08-07T08:53:43;7.00;;;3.47;;
62006;SDS011;47963;53.008;6.754;2022-08-07T08:56:26;7.18;;;3.30;;
62006;SDS011;47963;53.008;6.754;2022-08-07T09:05:00;7.97;;;3.55;;
62006;SDS011;47963;53.008;6.754;2022-08-07T09:10:43;6.28;;;2.85;;
62006;SDS011;47963;53.008;6.754;2022-08-07T09:29:55;6.63;;;3.03;;
62006;SDS011;47963;53.008;6.754;2022-08-07T09:37:57;6.05;;;2.95;;
62006;SDS011;47963;53.008;6.754;2022-08-07T09:54:44;6.20;;;2.70;;
62006;SDS011;47963;53.008;6.754;2022-08-07T09:57:22;5.28;;;2.70;;
62006;SDS011;47963;53.008;6.754;2022-08-07T10:00:15;6.88;;;2.85;;
62006;SDS011;47963;53.008;6.754;2022-08-07T10:06:15;6.38;;;2.60;;
62006;SDS011;47963;53.008;6.754;2022-08-07T10:12:07;5.90;;;2.60;;
62006;SDS011;47963;53.008;6.754;2022-08-07T10:17:41;5.72;;;2.67;;
62006;SDS011;47963;53.008;6.754;2022-08-07T10:20:27;5.22;;;2.30;;
62006;SDS011;47963;53.008;6.754;2022-08-07T10:25:50;5.03;;;2.60;;
62006;SDS011;47963;53.008;6.754;2022-08-07T10:34:13;6.45;;;2.67;;
62006;SDS011;47963;53.008;6.754;2022-08-07T10:48:04;6.60;;;2.80;;
62006;SDS011;47963;53.008;6.754;2022-08-07T10:50:45;6.63;;;3.20;;
62006;SDS011;47963;53.008;6.754;2022-08-07T10:53:21;6.43;;;2.70;;
62006;SDS011;47963;53.008;6.754;2022-08-07T11:09:17;5.80;;;2.50;;
62006;SDS011;47963;53.008;6.754;2022-08-07T11:12:09;5.47;;;2.53;;
62006;SDS011;47963;53.008;6.754;2022-08-07T11:14:42;4.82;;;2.20;;
62006;SDS011;47963;53.008;6.754;2022-08-07T11:17:16;6.47;;;2.70;;
62006;SDS011;47963;53.008;6.754;2022-08-07T11:20:06;6.85;;;2.67;;
62006;SDS011;47963;53.008;6.754;2022-08-07T11:25:34;4.85;;;2.47;;
62006;SDS011;47963;53.008;6.754;2022-08-07T11:30:56;4.88;;;2.28;;
62006;SDS011;47963;53.008;6.754;2022-08-07T11:39:20;5.10;;;2.28;;
62006;SDS011;47963;53.008;6.754;2022-08-07T11:45:25;5.70;;;2.40;;
62006;SDS011;47963;53.008;6.754;2022-08-07T11:53:30;6.15;;;2.42;;
62006;SDS011;47963;53.008;6.754;2022-08-07T12:01:51;5.28;;;2.15;;
62006;SDS011;47963;53.008;6.754;2022-08-07T12:07:33;5.28;;;2.30;;
62006;SDS011;47963;53.008;6.754;2022-08-07T12:10:07;5.25;;;2.42;;
62006;SDS011;47963;53.008;6.754;2022-08-07T12:12:41;5.28;;;2.20;;
62006;SDS011;47963;53.008;6.754;2022-08-07T12:15:13;5.47;;;2.45;;
62006;SDS011;47963;53.008;6.754;2022-08-07T12:17:47;5.18;;;2.50;;
62006;SDS011;47963;53.008;6.754;2022-08-07T12:20:21;6.45;;;2.60;;
62006;SDS011;47963;53.008;6.754;2022-08-07T12:25:49;4.50;;;2.30;;
62006;SDS011;47963;53.008;6.754;2022-08-07T12:28:21;4.72;;;2.40;;
62006;SDS011;47963;53.008;6.754;2022-08-07T12:30:52;4.85;;;2.38;;
62006;SDS011;47963;53.008;6.754;2022-08-07T12:33:24;4.95;;;2.10;;
62006;SDS011;47963;53.008;6.754;2022-08-07T12:35:52;6.15;;;2.30;;
62006;SDS011;47963;53.008;6.754;2022-08-07T12:38:19;6.20;;;2.03;;
62006;SDS011;47963;53.008;6.754;2022-08-07T12:40:47;5.75;;;2.30;;
62006;SDS011;47963;53.008;6.754;2022-08-07T12:43:14;4.68;;;2.20;;
62006;SDS011;47963;53.008;6.754;2022-08-07T12:51:52;4.68;;;2.15;;
62006;SDS011;47963;53.008;6.754;2022-08-07T12:54:30;4.40;;;2.00;;
62006;SDS011;47963;53.008;6.754;2022-08-07T12:57:04;3.97;;;1.98;;
62006;SDS011;47963;53.008;6.754;2022-08-07T12:59:32;4.38;;;2.20;;
62006;SDS011;47963;53.008;6.754;2022-08-07T13:10:40;4.40;;;1.90;;
62006;SDS011;47963;53.008;6.754;2022-08-07T13:16:04;5.05;;;2.22;;
62006;SDS011;47963;53.008;6.754;2022-08-07T13:21:44;4.85;;;2.00;;
62006;SDS011;47963;53.008;6.754;2022-08-07T13:30:06;5.20;;;1.90;;
62006;SDS011;47963;53.008;6.754;2022-08-07T13:35:00;5.18;;;1.90;;
62006;SDS011;47963;53.008;6.754;2022-08-07T13:37:32;5.28;;;1.90;;
62006;SDS011;47963;53.008;6.754;2022-08-07T13:40:19;3.75;;;1.85;;
62006;SDS011;47963;53.008;6.754;2022-08-07T13:42:55;3.92;;;1.80;;
62006;SDS011;47963;53.008;6.754;2022-08-07T13:45:24;4.50;;;1.85;;
62006;SDS011;47963;53.008;6.754;2022-08-07T13:47:55;4.97;;;1.73;;
62006;SDS011;47963;53.008;6.754;2022-08-07T13:50:23;4.82;;;1.90;;
62006;SDS011;47963;53.008;6.754;2022-08-07T13:52:50;4.05;;;1.88;;
62006;SDS011;47963;53.008;6.754;2022-08-07T13:55:19;3.60;;;1.77;;
62006;SDS011;47963;53.008;6.754;2022-08-07T13:57:48;4.30;;;1.80;;
62006;SDS011;47963;53.008;6.754;2022-08-07T14:00:16;3.65;;;1.88;;
62006;SDS011;47963;53.008;6.754;2022-08-07T14:02:43;5.88;;;2.20;;
62006;SDS011;47963;53.008;6.754;2022-08-07T14:05:13;4.53;;;2.10;;
62006;SDS011;47963;53.008;6.754;2022-08-07T14:07:40;5.90;;;2.50;;
62006;SDS011;47963;53.008;6.754;2022-08-07T14:10:09;3.97;;;2.10;;
62006;SDS011;47963;53.008;6.754;2022-08-07T14:12:54;4.18;;;1.90;;
62006;SDS011;47963;53.008;6.754;2022-08-07T14:15:30;5.95;;;2.17;;
62006;SDS011;47963;53.008;6.754;2022-08-07T14:18:02;3.38;;;1.90;;
62006;SDS011;47963;53.008;6.754;2022-08-07T14:20:49;5.57;;;2.20;;
62006;SDS011;47963;53.008;6.754;2022-08-07T14:23:22;5.13;;;2.30;;
62006;SDS011;47963;53.008;6.754;2022-08-07T14:25:54;5.30;;;2.42;;
62006;SDS011;47963;53.008;6.754;2022-08-07T14:28:25;5.10;;;2.30;;
62006;SDS011;47963;53.008;6.754;2022-08-07T14:30:54;4.82;;;2.00;;
62006;SDS011;47963;53.008;6.754;2022-08-07T14:33:20;5.00;;;2.25;;
62006;SDS011;47963;53.008;6.754;2022-08-07T14:35:48;4.88;;;2.20;;
62006;SDS011;47963;53.008;6.754;2022-08-07T14:38:21;4.95;;;2.05;;
62006;SDS011;47963;53.008;6.754;2022-08-07T14:40:55;5.75;;;2.33;;
62006;SDS011;47963;53.008;6.754;2022-08-07T14:43:27;5.63;;;2.53;;
62006;SDS011;47963;53.008;6.754;2022-08-07T14:45:55;7.22;;;2.63;;
62006;SDS011;47963;53.008;6.754;2022-08-07T14:48:29;6.78;;;2.70;;
62006;SDS011;47963;53.008;6.754;2022-08-07T14:50:57;6.20;;;2.60;;
62006;SDS011;47963;53.008;6.754;2022-08-07T14:53:27;5.57;;;2.40;;
62006;SDS011;47963;53.008;6.754;2022-08-07T14:55:56;6.32;;;2.85;;
62006;SDS011;47963;53.008;6.754;2022-08-07T14:58:27;5.68;;;2.60;;
62006;SDS011;47963;53.008;6.754;2022-08-07T15:00:57;5.55;;;2.70;;
62006;SDS011;47963;53.008;6.754;2022-08-07T15:03:25;4.80;;;2.40;;
62006;SDS011;47963;53.008;6.754;2022-08-07T15:05:53;6.00;;;2.50;;
62006;SDS011;47963;53.008;6.754;2022-08-07T15:08:28;5.38;;;2.65;;
62006;SDS011;47963;53.008;6.754;2022-08-07T15:11:00;5.82;;;2.60;;
62006;SDS011;47963;53.008;6.754;2022-08-07T15:13:30;5.72;;;2.72;;
62006;SDS011;47963;53.008;6.754;2022-08-07T15:16:05;5.03;;;2.53;;
62006;SDS011;47963;53.008;6.754;2022-08-07T15:18:32;5.95;;;2.67;;
62006;SDS011;47963;53.008;6.754;2022-08-07T15:21:24;5.10;;;2.47;;
62006;SDS011;47963;53.008;6.754;2022-08-07T15:23:53;5.55;;;2.55;;
62006;SDS011;47963;53.008;6.754;2022-08-07T15:26:23;5.40;;;2.70;;
62006;SDS011;47963;53.008;6.754;2022-08-07T15:28:57;4.63;;;2.30;;
62006;SDS011;47963;53.008;6.754;2022-08-07T15:31:24;6.63;;;2.58;;
62006;SDS011;47963;53.008;6.754;2022-08-07T15:33:56;7.97;;;3.15;;
62006;SDS011;47963;53.008;6.754;2022-08-07T15:38:50;6.80;;;3.30;;
62006;SDS011;47963;53.008;6.754;2022-08-07T15:41:20;6.22;;;3.00;;
62006;SDS011;47963;53.008;6.754;2022-08-07T15:44:05;6.30;;;2.78;;
62006;SDS011;47963;53.008;6.754;2022-08-07T15:46:34;5.45;;;2.60;;
62006;SDS011;47963;53.008;6.754;2022-08-07T15:49:02;6.97;;;2.75;;
62006;SDS011;47963;53.008;6.754;2022-08-07T15:51:31;6.80;;;2.75;;
62006;SDS011;47963;53.008;6.754;2022-08-07T15:54:00;6.18;;;2.70;;
62006;SDS011;47963;53.008;6.754;2022-08-07T15:56:29;6.93;;;2.88;;
62006;SDS011;47963;53.008;6.754;2022-08-07T15:58:58;6.72;;;2.88;;
62006;SDS011;47963;53.008;6.754;2022-08-07T16:01:29;6.03;;;2.53;;
62006;SDS011;47963;53.008;6.754;2022-08-07T16:04:01;6.45;;;2.55;;
62006;SDS011;47963;53.008;6.754;2022-08-07T16:06:34;7.00;;;2.85;;
62006;SDS011;47963;53.008;6.754;2022-08-07T16:09:12;8.15;;;2.78;;
62006;SDS011;47963;53.008;6.754;2022-08-07T16:17:38;6.88;;;2.63;;
62006;SDS011;47963;53.008;6.754;2022-08-07T16:33:34;7.03;;;3.33;;
62006;SDS011;47963;53.008;6.754;2022-08-07T16:44:33;6.32;;;2.88;;
62006;SDS011;47963;53.008;6.754;2022-08-07T16:56:19;10.07;;;3.15;;
62006;SDS011;47963;53.008;6.754;2022-08-07T16:59:17;6.43;;;2.78;;
62006;SDS011;47963;53.008;6.754;2022-08-07T17:09:53;6.78;;;3.03;;
62006;SDS011;47963;53.008;6.754;2022-08-07T17:17:43;7.65;;;3.00;;
62006;SDS011;47963;53.008;6.754;2022-08-07T17:20:30;6.32;;;2.88;;
62006;SDS011;47963;53.008;6.754;2022-08-07T17:25:47;6.85;;;2.90;;
62006;SDS011;47963;53.008;6.754;2022-08-07T17:28:16;5.90;;;3.00;;
62006;SDS011;47963;53.008;6.754;2022-08-07T17:30:51;7.43;;;3.20;;
62006;SDS011;47963;53.008;6.754;2022-08-07T17:33:32;7.32;;;3.10;;
62006;SDS011;47963;53.008;6.754;2022-08-07T17:41:58;7.63;;;3.30;;
62006;SDS011;47963;53.008;6.754;2022-08-07T17:44:29;7.25;;;3.15;;
62006;SDS011;47963;53.008;6.754;2022-08-07T17:47:07;7.43;;;3.10;;
62006;SDS011;47963;53.008;6.754;2022-08-07T17:49:59;7.28;;;2.80;;
62006;SDS011;47963;53.008;6.754;2022-08-07T18:00:26;5.95;;;2.70;;
62006;SDS011;47963;53.008;6.754;2022-08-07T18:02:54;5.85;;;2.90;;
62006;SDS011;47963;53.008;6.754;2022-08-07T18:08:13;8.95;;;3.63;;
62006;SDS011;47963;53.008;6.754;2022-08-07T18:16:09;8.70;;;4.22;;
62006;SDS011;47963;53.008;6.754;2022-08-07T18:18:45;8.45;;;3.75;;
62006;SDS011;47963;53.008;6.754;2022-08-07T18:21:15;9.05;;;3.90;;
62006;SDS011;47963;53.008;6.754;2022-08-07T18:24:48;8.80;;;4.25;;
62006;SDS011;47963;53.008;6.754;2022-08-07T18:35:22;7.63;;;3.85;;
62006;SDS011;47963;53.008;6.754;2022-08-07T18:43:48;8.52;;;4.15;;
62006;SDS011;47963;53.008;6.754;2022-08-07T18:49:21;9.25;;;4.00;;
62006;SDS011;47963;53.008;6.754;2022-08-07T18:52:02;9.43;;;3.78;;
62006;SDS011;47963;53.008;6.754;2022-08-07T18:58:02;7.88;;;3.72;;
62006;SDS011;47963;53.008;6.754;2022-08-07T19:00:50;8.50;;;3.75;;
62006;SDS011;47963;53.008;6.754;2022-08-07T19:03:41;9.48;;;3.72;;
62006;SDS011;47963;53.008;6.754;2022-08-07T19:06:14;6.95;;;3.63;;
62006;SDS011;47963;53.008;6.754;2022-08-07T19:17:14;8.90;;;3.72;;
62006;SDS011;47963;53.008;6.754;2022-08-07T19:20:05;8.93;;;4.03;;
62006;SDS011;47963;53.008;6.754;2022-08-07T19:22:56;7.80;;;3.58;;
62006;SDS011;47963;53.008;6.754;2022-08-07T19:25:46;9.70;;;3.83;;
62006;SDS011;47963;53.008;6.754;2022-08-07T19:28:20;9.15;;;3.95;;
62006;SDS011;47963;53.008;6.754;2022-08-07T19:30:56;7.80;;;3.80;;
62006;SDS011;47963;53.008;6.754;2022-08-07T19:33:35;8.65;;;4.07;;
62006;SDS011;47963;53.008;6.754;2022-08-07T19:36:04;9.48;;;3.90;;
62006;SDS011;47963;53.008;6.754;2022-08-07T19:38:32;7.40;;;3.40;;
62006;SDS011;47963;53.008;6.754;2022-08-07T19:41:01;9.27;;;3.88;;